createdAt,value
2023-03-27T18:42:44.277Z,100615.19
2023-03-27T18:45:14.437Z,100611.66
2023-03-27T18:47:44.797Z,100625.06
2023-03-27T18:50:17.483Z,100622.66
2023-03-27T18:52:45.816Z,100632.81
2023-03-27T18:55:13.886Z,100641.59
2023-03-27T18:57:44.172Z,100636.78
2023-03-27T19:00:18.742Z,100646.22
2023-03-27T19:02:51.505Z,100653.75
2023-03-27T19:05:19.692Z,100649.63
2023-03-27T19:07:48.418Z,100662.06
2023-03-27T19:10:16.628Z,100667.56
2023-03-27T19:12:54.993Z,100670.53
2023-03-27T19:16:14.461Z,100681.84
2023-03-27T19:19:01.554Z,100696.81
2023-03-27T19:21:55.290Z,100705.13
2023-03-27T19:24:36.033Z,100703.69
2023-03-27T19:27:05.071Z,100723.47
2023-03-27T19:29:34.466Z,100718.50
2023-03-27T19:32:03.101Z,100724.88
2023-03-27T19:34:42.100Z,100737.50
2023-03-27T19:37:11.536Z,100738.78
2023-03-27T19:39:39.761Z,100755.31
2023-03-27T19:42:08.058Z,100758.75
2023-03-27T19:44:48.252Z,100769.41
2023-03-27T19:47:21.095Z,100785.25
2023-03-27T19:49:49.698Z,100781.28
2023-03-27T19:52:57.270Z,100801.34
2023-03-27T19:55:29.584Z,100800.66
2023-03-27T19:57:58.223Z,100809.72
2023-03-27T20:00:26.638Z,100803.25
2023-03-27T20:02:54.950Z,100800.53
2023-03-27T20:05:23.690Z,100798.28
2023-03-27T20:07:52.492Z,100795.22
2023-03-27T20:10:21.799Z,100792.88
2023-03-27T20:12:49.933Z,100794.94
2023-03-27T20:15:18.579Z,100808.31
2023-03-27T20:17:47.083Z,100803.16
2023-03-27T20:20:15.503Z,100807.44
2023-03-27T20:22:57.140Z,100809.16
2023-03-27T20:25:28.338Z,100815.56
2023-03-27T20:27:56.723Z,100819.88
2023-03-27T20:30:25.222Z,100818.50
2023-03-27T20:32:54.744Z,100821.31
2023-03-27T20:35:24.953Z,100817.38
2023-03-27T20:37:56.541Z,100835.13
2023-03-27T20:40:27.258Z,100849.72
2023-03-27T20:43:04.268Z,100837.09
2023-03-27T20:45:32.723Z,100851.00
2023-03-27T20:48:04.448Z,100858.56
2023-03-27T20:50:35.970Z,100853.31
2023-03-27T20:53:04.975Z,100865.28
2023-03-27T20:55:37.539Z,100875.25
2023-03-27T20:58:14.520Z,100885.47
2023-03-27T21:00:44.396Z,100885.19
2023-03-27T21:03:12.481Z,100892.22
2023-03-27T21:05:41.989Z,100900.34
2023-03-27T21:08:10.319Z,100907.44
2023-03-27T21:10:39.294Z,100912.91
2023-03-27T21:13:08.011Z,100913.75
2023-03-27T21:15:36.413Z,100912.19
2023-03-27T21:18:04.549Z,100940.19
2023-03-27T21:20:35.087Z,100950.09
2023-03-27T21:23:03.446Z,100950.75
2023-03-27T21:25:31.664Z,100960.56
2023-03-27T21:28:04.751Z,100966.72
2023-03-27T21:30:46.929Z,100966.03
2023-03-27T21:33:16.978Z,100983.81
2023-03-27T21:35:49.442Z,100990.22
2023-03-27T21:38:18.443Z,101007.28
2023-03-27T21:40:48.038Z,101012.19
2023-03-27T21:43:16.410Z,101022.19
2023-03-27T21:45:44.632Z,101019.06
2023-03-27T21:48:12.746Z,101033.38
2023-03-27T21:50:41.574Z,101035.09
2023-03-27T21:53:09.969Z,101045.69
2023-03-27T21:55:38.555Z,101043.72
2023-03-27T21:58:07.347Z,101049.75
2023-03-27T22:00:36.227Z,101054.25
2023-03-27T22:03:04.583Z,101055.31
2023-03-27T22:05:36.896Z,101063.66
2023-03-27T22:08:06.651Z,101068.72
2023-03-27T22:10:36.458Z,101078.44
2023-03-27T22:13:06.290Z,101079.84
2023-03-27T22:15:34.654Z,101076.97
2023-03-27T22:18:03.372Z,101080.69
2023-03-27T22:20:32.052Z,101090.44
2023-03-27T22:23:00.611Z,101093.31
2023-03-27T22:25:28.829Z,101093.97
2023-03-27T22:27:57.376Z,101099.22
2023-03-27T22:30:26.123Z,101103.28
2023-03-27T22:32:55.377Z,101104.66
2023-03-27T22:35:23.964Z,101109.25
2023-03-27T22:37:52.580Z,101110.81
2023-03-27T22:40:21.328Z,101112.66
2023-03-27T22:42:49.611Z,101117.03
2023-03-27T22:45:18.294Z,101124.03
2023-03-27T22:47:47.031Z,101132.28
2023-03-27T22:50:16.303Z,101139.06
2023-03-27T22:52:44.468Z,101137.50
2023-03-27T22:55:12.621Z,101145.78
2023-03-27T22:57:41.382Z,101144.84
2023-03-27T23:00:10.382Z,101152.19
2023-03-27T23:02:38.983Z,101151.78
2023-03-27T23:05:07.586Z,101160.53
2023-03-27T23:07:36.642Z,101151.66
2023-03-27T23:10:04.974Z,101162.34
2023-03-27T23:12:33.572Z,101157.00
2023-03-27T23:15:01.892Z,101164.81
2023-03-27T23:17:30.623Z,101163.72
2023-03-27T23:19:59.426Z,101176.00
2023-03-27T23:22:27.616Z,101182.84
2023-03-27T23:24:56.373Z,101191.59
2023-03-27T23:27:25.054Z,101195.09
2023-03-27T23:29:53.238Z,101192.44
2023-03-27T23:32:22.100Z,101203.94
2023-03-27T23:34:50.248Z,101197.69
2023-03-27T23:37:18.889Z,101194.13
2023-03-27T23:39:47.606Z,101202.38
2023-03-27T23:42:16.248Z,101215.16
2023-03-27T23:44:44.852Z,101201.56
2023-03-27T23:47:13.568Z,101212.53
2023-03-27T23:49:43.130Z,101220.75
2023-03-27T23:52:11.694Z,101232.63
2023-03-27T23:54:40.452Z,101241.03
2023-03-27T23:57:09.276Z,101246.66
2023-03-27T23:59:38.401Z,101250.28
